PWSweather.com
Personal Weather Stations
Station Observations
KMOHERMA2
Stony Hill, Hermann, MO 65041

Stony HillHermann, MO 65041

Lat: 38.527, Lon: -91.414

Elevation: 896

Station Type: Davis Vantage Pro 2

Latest ConditionsUpdated 10:20:17 PM CST Thursday, Dec 13, 2018
Currently Today's Max Today's Min Today's Average
Temperature 43.4°F6.3°C 45.1°F7.3°C 38.4°F3.6°C 42.2°F5.7°C
Dew Point 42.1°F5.6°C 43.5°F6.4°C 28.9°F-1.7°C 39.6°F4.2°C
Winds Calm Calm Calm -Calm - - Calm Calm
Wind Gusts -- -- - -
Humidity 95% 95% 68% 91%
Pressure 29.96 in1014.6 mb 29.96 in1014.6 mb 29.85 in1010.8 mb -
Precipitation - 0.62 in15.7 mm - -
Hour Temp Dew Point Humidity Winds Wind Gusts Pressure Precip Precip Rate Daily Precip Total
10:20 PM 43.4°F6.3°C 42.1°F5.6°C 95% Calm Calm -- 29.96 in1014.6 mb 0.11 in2.8 mm 0.00 in0.0 mm 0.62 in15.7 mm
10:15 PM 43.3°F6.3°C 42.1°F5.6°C 95% Calm Calm -- 29.96 in1014.6 mb 0.11 in2.8 mm 0.00 in0.0 mm 0.61 in15.5 mm
10:10 PM 43.3°F6.3°C 42.1°F5.6°C 95% Calm Calm -- 29.96 in1014.6 mb 0.12 in3.0 mm 0.00 in0.0 mm 0.61 in15.5 mm
10:05 PM 43.3°F6.3°C 42.1°F5.6°C 95% Calm Calm -- 29.96 in1014.6 mb 0.13 in3.3 mm 0.00 in0.0 mm 0.60 in15.2 mm
10:00 PM 43.3°F6.3°C 42.1°F5.6°C 95% Calm Calm -- 29.96 in1014.6 mb 0.14 in3.6 mm 0.00 in0.0 mm 0.59 in15.0 mm
09:55 PM 43.2°F6.2°C 41.9°F5.5°C 95% Calm Calm -- 29.96 in1014.6 mb 0.15 in3.8 mm 0.00 in0.0 mm 0.58 in14.7 mm
09:50 PM 43.2°F6.2°C 41.9°F5.5°C 95% Calm Calm -- 29.96 in1014.6 mb 0.15 in3.8 mm 0.00 in0.0 mm 0.57 in14.5 mm
09:45 PM 43.2°F6.2°C 41.9°F5.5°C 95% Calm Calm -- 29.96 in1014.6 mb 0.15 in3.8 mm 0.12 in3.0 mm 0.56 in14.2 mm
09:40 PM 43.2°F6.2°C 41.9°F5.5°C 95% Calm Calm -- 29.96 in1014.6 mb 0.14 in3.6 mm 0.00 in0.0 mm 0.55 in14.0 mm
09:35 PM 43.2°F6.2°C 41.9°F5.5°C 95% Calm Calm -- 29.96 in1014.6 mb 0.14 in3.6 mm 0.00 in0.0 mm 0.54 in13.7 mm
09:30 PM 43.2°F6.2°C 41.9°F5.5°C 95% Calm Calm -- 29.96 in1014.6 mb 0.14 in3.6 mm 0.00 in0.0 mm 0.53 in13.5 mm
09:25 PM 43.2°F6.2°C 41.9°F5.5°C 95% Calm Calm -- 29.96 in1014.6 mb 0.14 in3.6 mm 0.12 in3.0 mm 0.52 in13.2 mm
09:20 PM 43.2°F6.2°C 41.9°F5.5°C 95% Calm Calm -- 29.96 in1014.6 mb 0.13 in3.3 mm 0.00 in0.0 mm 0.51 in13.0 mm
09:15 PM 43.2°F6.2°C 41.9°F5.5°C 95% Calm Calm -- 29.95 in1014.2 mb 0.13 in3.3 mm 0.12 in3.0 mm 0.50 in12.7 mm
09:10 PM 43.3°F6.3°C 42.1°F5.6°C 95% Calm Calm -- 29.95 in1014.2 mb 0.12 in3.0 mm 0.24 in6.1 mm 0.49 in12.4 mm
09:05 PM 43.3°F6.3°C 42.1°F5.6°C 95% Calm Calm -- 29.95 in1014.2 mb 0.10 in2.5 mm 0.00 in0.0 mm 0.47 in11.9 mm
09:00 PM 43.3°F6.3°C 42.1°F5.6°C 95% Calm Calm -- 29.95 in1014.2 mb 0.10 in2.5 mm 0.02 in0.5 mm 0.45 in11.4 mm
08:55 PM 43.3°F6.3°C 42.1°F5.6°C 95% Calm Calm -- 29.95 in1014.2 mb 0.08 in2.0 mm 0.00 in0.0 mm 0.43 in10.9 mm
08:50 PM 43.4°F6.3°C 42.1°F5.6°C 95% Calm Calm -- 29.95 in1014.2 mb 0.08 in2.0 mm 0.00 in0.0 mm 0.42 in10.7 mm
08:45 PM 43.4°F6.3°C 42.1°F5.6°C 95% Calm Calm -- 29.95 in1014.2 mb 0.08 in2.0 mm 0.00 in0.0 mm 0.41 in10.4 mm
08:40 PM 43.4°F6.3°C 42.1°F5.6°C 95% Calm Calm -- 29.95 in1014.2 mb 0.09 in2.3 mm 0.00 in0.0 mm 0.41 in10.4 mm
08:35 PM 43.5°F6.4°C 42.3°F5.7°C 95% Calm Calm -- 29.95 in1014.2 mb 0.09 in2.3 mm 0.12 in3.0 mm 0.40 in10.2 mm
08:30 PM 43.5°F6.4°C 42.3°F5.7°C 95% Calm Calm -- 29.95 in1014.2 mb 0.08 in2.0 mm 0.00 in0.0 mm 0.39 in9.9 mm
08:25 PM 43.5°F6.4°C 42.3°F5.7°C 95% Calm Calm -- 29.95 in1014.2 mb 0.08 in2.0 mm 0.00 in0.0 mm 0.38 in9.7 mm
08:20 PM 43.5°F6.4°C 42.3°F5.7°C 95% Calm Calm -- 29.95 in1014.2 mb 0.09 in2.3 mm 0.00 in0.0 mm 0.38 in9.7 mm
08:15 PM 43.5°F6.4°C 42.3°F5.7°C 95% Calm Calm -- 29.94 in1013.9 mb 0.09 in2.3 mm 0.00 in0.0 mm 0.37 in9.4 mm
08:10 PM 43.6°F6.4°C 42.3°F5.7°C 95% Calm Calm -- 29.95 in1014.2 mb 0.10 in2.5 mm 0.00 in0.0 mm 0.37 in9.4 mm
08:05 PM 43.6°F6.4°C 42.3°F5.7°C 95% Calm Calm -- 29.94 in1013.9 mb 0.11 in2.8 mm 0.12 in3.0 mm 0.37 in9.4 mm
08:00 PM 43.6°F6.4°C 42.3°F5.7°C 95% Calm Calm -- 29.95 in1014.2 mb 0.10 in2.5 mm 0.00 in0.0 mm 0.35 in8.9 mm
07:55 PM 43.6°F6.4°C 42.3°F5.7°C 95% Calm Calm -- 29.95 in1014.2 mb 0.10 in2.5 mm 0.00 in0.0 mm 0.35 in8.9 mm
07:50 PM 43.6°F6.4°C 42.3°F5.7°C 95% Calm Calm -- 29.95 in1014.2 mb 0.10 in2.5 mm 0.00 in0.0 mm 0.34 in8.6 mm
07:45 PM 43.5°F6.4°C 42.3°F5.7°C 95% Calm Calm -- 29.95 in1014.2 mb 0.10 in2.5 mm 0.00 in0.0 mm 0.33 in8.4 mm
07:40 PM 43.5°F6.4°C 42.3°F5.7°C 95% Calm Calm -- 29.95 in1014.2 mb 0.12 in3.0 mm 0.00 in0.0 mm 0.32 in8.1 mm
07:35 PM 43.5°F6.4°C 42.3°F5.7°C 95% Calm Calm -- 29.95 in1014.2 mb 0.12 in3.0 mm 0.00 in0.0 mm 0.31 in7.9 mm
07:30 PM 43.5°F6.4°C 42.3°F5.7°C 95% Calm Calm -- 29.95 in1014.2 mb 0.13 in3.3 mm 0.12 in3.0 mm 0.31 in7.9 mm
07:25 PM 43.5°F6.4°C 42.3°F5.7°C 95% Calm Calm -- 29.94 in1013.9 mb 0.12 in3.0 mm 0.00 in0.0 mm 0.30 in7.6 mm
07:20 PM 43.5°F6.4°C 42.3°F5.7°C 95% Calm Calm -- 29.94 in1013.9 mb 0.12 in3.0 mm 0.00 in0.0 mm 0.29 in7.4 mm
07:15 PM 43.5°F6.4°C 42.3°F5.7°C 95% Calm Calm -- 29.94 in1013.9 mb 0.12 in3.0 mm 0.00 in0.0 mm 0.28 in7.1 mm
07:10 PM 43.4°F6.3°C 42.1°F5.6°C 95% Calm Calm -- 29.94 in1013.9 mb 0.12 in3.0 mm 0.12 in3.0 mm 0.27 in6.9 mm
07:05 PM 43.4°F6.3°C 42.1°F5.6°C 95% Calm Calm -- 29.94 in1013.9 mb 0.11 in2.8 mm 0.00 in0.0 mm 0.26 in6.6 mm
07:00 PM 43.4°F6.3°C 42.1°F5.6°C 95% Calm Calm -- 29.94 in1013.9 mb 0.11 in2.8 mm 0.00 in0.0 mm 0.25 in6.4 mm
06:55 PM 43.3°F6.3°C 42.1°F5.6°C 95% Calm Calm -- 29.93 in1013.5 mb 0.11 in2.8 mm 0.00 in0.0 mm 0.25 in6.4 mm
06:50 PM 43.3°F6.3°C 42.1°F5.6°C 95% Calm Calm -- 29.93 in1013.5 mb 0.11 in2.8 mm 0.12 in3.0 mm 0.24 in6.1 mm
06:45 PM 43.3°F6.3°C 42.1°F5.6°C 95% Calm Calm -- 29.93 in1013.5 mb 0.10 in2.5 mm 0.12 in3.0 mm 0.23 in5.8 mm
06:40 PM 43.2°F6.2°C 41.9°F5.5°C 95% Calm Calm -- 29.93 in1013.5 mb 0.09 in2.3 mm 0.24 in6.1 mm 0.21 in5.3 mm
06:35 PM 43.2°F6.2°C 41.9°F5.5°C 95% Calm Calm -- 29.93 in1013.5 mb 0.07 in1.8 mm 0.00 in0.0 mm 0.19 in4.8 mm
06:30 PM 43.1°F6.2°C 41.9°F5.5°C 95% Calm Calm -- 29.93 in1013.5 mb 0.07 in1.8 mm 0.00 in0.0 mm 0.18 in4.6 mm
06:25 PM 43.1°F6.2°C 41.9°F5.5°C 95% Calm Calm -- 29.93 in1013.5 mb 0.07 in1.8 mm 0.12 in3.0 mm 0.18 in4.6 mm
06:20 PM 43.1°F6.2°C 41.9°F5.5°C 95% Calm Calm -- 29.93 in1013.5 mb 0.06 in1.5 mm 0.12 in3.0 mm 0.17 in4.3 mm
06:15 PM 43.0°F6.1°C 41.7°F5.4°C 95% Calm Calm -- 29.93 in1013.5 mb 0.05 in1.3 mm 0.12 in3.0 mm 0.16 in4.1 mm
06:10 PM 43.0°F6.1°C 41.7°F5.4°C 95% Calm Calm -- 29.93 in1013.5 mb 0.04 in1.0 mm 0.00 in0.0 mm 0.15 in3.8 mm
06:05 PM 42.9°F6.1°C 41.7°F5.4°C 95% Calm Calm -- 29.93 in1013.5 mb 0.05 in1.3 mm 0.12 in3.0 mm 0.15 in3.8 mm
06:00 PM 42.9°F6.1°C 41.7°F5.4°C 95% Calm Calm -- 29.92 in1013.2 mb 0.04 in1.0 mm 0.00 in0.0 mm 0.14 in3.6 mm
05:55 PM 42.9°F6.1°C 41.7°F5.4°C 95% Calm Calm -- 29.92 in1013.2 mb 0.04 in1.0 mm 0.12 in3.0 mm 0.14 in3.6 mm
05:50 PM 42.8°F6.0°C 41.5°F5.3°C 95% Calm Calm -- 29.92 in1013.2 mb 0.03 in0.8 mm 0.00 in0.0 mm 0.13 in3.3 mm
05:45 PM 42.9°F6.1°C 41.7°F5.4°C 95% Calm Calm -- 29.92 in1013.2 mb 0.03 in0.8 mm 0.00 in0.0 mm 0.13 in3.3 mm
05:40 PM 42.8°F6.0°C 41.5°F5.3°C 95% Calm Calm -- 29.92 in1013.2 mb 0.03 in0.8 mm 0.00 in0.0 mm 0.12 in3.0 mm
05:35 PM 42.8°F6.0°C 41.5°F5.3°C 95% Calm Calm -- 29.92 in1013.2 mb 0.03 in0.8 mm 0.00 in0.0 mm 0.12 in3.0 mm
05:30 PM 42.8°F6.0°C 41.5°F5.3°C 95% Calm Calm -- 29.92 in1013.2 mb 0.03 in0.8 mm 0.00 in0.0 mm 0.11 in2.8 mm
05:25 PM 42.8°F6.0°C 41.5°F5.3°C 95% Calm Calm -- 29.92 in1013.2 mb 0.03 in0.8 mm 0.00 in0.0 mm 0.11 in2.8 mm
05:20 PM 42.8°F6.0°C 41.5°F5.3°C 95% Calm Calm -- 29.91 in1012.9 mb 0.03 in0.8 mm 0.00 in0.0 mm 0.11 in2.8 mm
05:15 PM 42.8°F6.0°C 41.5°F5.3°C 95% Calm Calm -- 29.91 in1012.9 mb 0.03 in0.8 mm 0.00 in0.0 mm 0.11 in2.8 mm
05:10 PM 42.9°F6.1°C 41.7°F5.4°C 95% Calm Calm -- 29.91 in1012.9 mb 0.03 in0.8 mm 0.00 in0.0 mm 0.11 in2.8 mm
05:05 PM 42.9°F6.1°C 41.7°F5.4°C 95% Calm Calm -- 29.91 in1012.9 mb 0.03 in0.8 mm 0.00 in0.0 mm 0.10 in2.5 mm
05:00 PM 43.0°F6.1°C 41.4°F5.2°C 94% Calm Calm -- 29.91 in1012.9 mb 0.03 in0.8 mm 0.00 in0.0 mm 0.10 in2.5 mm
04:55 PM 43.0°F6.1°C 41.4°F5.2°C 94% Calm Calm -- 29.91 in1012.9 mb 0.03 in0.8 mm 0.00 in0.0 mm 0.10 in2.5 mm
04:50 PM 43.0°F6.1°C 41.4°F5.2°C 94% Calm Calm -- 29.91 in1012.9 mb 0.03 in0.8 mm 0.00 in0.0 mm 0.10 in2.5 mm
04:45 PM 43.1°F6.2°C 41.5°F5.3°C 94% Calm Calm -- 29.91 in1012.9 mb 0.04 in1.0 mm 0.12 in3.0 mm 0.10 in2.5 mm
04:40 PM 43.1°F6.2°C 41.5°F5.3°C 94% Calm Calm -- 29.91 in1012.9 mb 0.03 in0.8 mm 0.00 in0.0 mm 0.09 in2.3 mm
04:35 PM 43.1°F6.2°C 41.5°F5.3°C 94% Calm Calm -- 29.91 in1012.9 mb 0.03 in0.8 mm 0.12 in3.0 mm 0.09 in2.3 mm
04:30 PM 43.1°F6.2°C 41.5°F5.3°C 94% Calm Calm -- 29.90 in1012.5 mb 0.02 in0.5 mm 0.00 in0.0 mm 0.08 in2.0 mm
04:25 PM 43.1°F6.2°C 41.5°F5.3°C 94% Calm Calm -- 29.90 in1012.5 mb 0.03 in0.8 mm 0.00 in0.0 mm 0.08 in2.0 mm
04:20 PM 43.1°F6.2°C 41.5°F5.3°C 94% Calm Calm -- 29.90 in1012.5 mb 0.03 in0.8 mm 0.00 in0.0 mm 0.08 in2.0 mm
04:15 PM 43.2°F6.2°C 41.5°F5.3°C 94% Calm Calm -- 29.90 in1012.5 mb 0.03 in0.8 mm 0.00 in0.0 mm 0.08 in2.0 mm
04:10 PM 43.2°F6.2°C 41.5°F5.3°C 94% Calm Calm -- 29.90 in1012.5 mb 0.03 in0.8 mm 0.12 in3.0 mm 0.08 in2.0 mm
04:05 PM 43.3°F6.3°C 41.7°F5.4°C 94% Calm Calm -- 29.89 in1012.2 mb 0.02 in0.5 mm 0.00 in0.0 mm 0.07 in1.8 mm
04:00 PM 43.3°F6.3°C 41.7°F5.4°C 94% Calm Calm -- 29.90 in1012.5 mb 0.03 in0.8 mm 0.00 in0.0 mm 0.07 in1.8 mm
03:55 PM 43.4°F6.3°C 41.7°F5.4°C 94% Calm Calm -- 29.90 in1012.5 mb 0.03 in0.8 mm 0.00 in0.0 mm 0.07 in1.8 mm
03:50 PM 43.4°F6.3°C 41.7°F5.4°C 94% Calm Calm -- 29.90 in1012.5 mb 0.03 in0.8 mm 0.12 in3.0 mm 0.07 in1.8 mm
03:45 PM 43.5°F6.4°C 41.9°F5.5°C 94% Calm Calm -- 29.89 in1012.2 mb 0.02 in0.5 mm 0.00 in0.0 mm 0.06 in1.5 mm
03:40 PM 43.5°F6.4°C 41.9°F5.5°C 94% Calm Calm -- 29.89 in1012.2 mb 0.02 in0.5 mm 0.00 in0.0 mm 0.06 in1.5 mm
03:35 PM 43.7°F6.5°C 42.1°F5.6°C 94% Calm Calm -- 29.89 in1012.2 mb 0.02 in0.5 mm 0.00 in0.0 mm 0.06 in1.5 mm
03:30 PM 43.8°F6.6°C 42.3°F5.7°C 94% Calm Calm -- 29.89 in1012.2 mb 0.03 in0.8 mm 0.12 in3.0 mm 0.06 in1.5 mm
03:25 PM 44.0°F6.7°C 42.4°F5.8°C 94% Calm Calm -- 29.89 in1012.2 mb 0.02 in0.5 mm 0.00 in0.0 mm 0.05 in1.3 mm
03:20 PM 44.3°F6.8°C 42.6°F5.9°C 94% Calm Calm -- 29.89 in1012.2 mb 0.02 in0.5 mm 0.00 in0.0 mm 0.05 in1.3 mm
03:15 PM 44.6°F7.0°C 43.0°F6.1°C 94% Calm Calm -- 29.89 in1012.2 mb 0.02 in0.5 mm 0.00 in0.0 mm 0.05 in1.3 mm
03:10 PM 44.8°F7.1°C 43.2°F6.2°C 94% Calm Calm -- 29.89 in1012.2 mb 0.02 in0.5 mm 0.00 in0.0 mm 0.05 in1.3 mm
03:05 PM 45.0°F7.2°C 43.3°F6.3°C 94% Calm Calm -- 29.89 in1012.2 mb 0.03 in0.8 mm 0.12 in3.0 mm 0.05 in1.3 mm
03:00 PM 45.1°F7.3°C 43.5°F6.4°C 94% Calm Calm -- 29.89 in1012.2 mb 0.02 in0.5 mm 0.00 in0.0 mm 0.04 in1.0 mm
02:55 PM 45.1°F7.3°C 43.5°F6.4°C 94% Calm Calm -- 29.89 in1012.2 mb 0.02 in0.5 mm 0.00 in0.0 mm 0.04 in1.0 mm
02:50 PM 45.0°F7.2°C 43.3°F6.3°C 94% Calm Calm -- 29.88 in1011.9 mb 0.03 in0.8 mm 0.00 in0.0 mm 0.04 in1.0 mm
02:45 PM 44.9°F7.2°C 43.3°F6.3°C 94% Calm Calm -- 29.88 in1011.9 mb 0.03 in0.8 mm 0.00 in0.0 mm 0.04 in1.0 mm
02:40 PM 44.9°F7.2°C 43.3°F6.3°C 94% Calm Calm -- 29.88 in1011.9 mb 0.03 in0.8 mm 0.00 in0.0 mm 0.04 in1.0 mm
02:35 PM 44.9°F7.2°C 43.0°F6.1°C 93% Calm Calm -- 29.88 in1011.9 mb 0.03 in0.8 mm 0.00 in0.0 mm 0.04 in1.0 mm
02:30 PM 44.9°F7.2°C 43.0°F6.1°C 93% Calm Calm -- 29.88 in1011.9 mb 0.03 in0.8 mm 0.12 in3.0 mm 0.04 in1.0 mm
02:25 PM 44.8°F7.1°C 42.8°F6.0°C 93% Calm Calm -- 29.88 in1011.9 mb 0.02 in0.5 mm 0.00 in0.0 mm 0.03 in0.8 mm
02:20 PM 44.8°F7.1°C 42.8°F6.0°C 93% Calm Calm -- 29.88 in1011.9 mb 0.02 in0.5 mm 0.00 in0.0 mm 0.03 in0.8 mm
02:15 PM 44.8°F7.1°C 42.8°F6.0°C 93% Calm Calm -- 29.88 in1011.9 mb 0.02 in0.5 mm 0.00 in0.0 mm 0.03 in0.8 mm
02:10 PM 44.8°F7.1°C 42.8°F6.0°C 93% Calm Calm -- 29.88 in1011.9 mb 0.03 in0.8 mm 0.12 in3.0 mm 0.03 in0.8 mm
02:05 PM 44.8°F7.1°C 42.8°F6.0°C 93% Calm Calm -- 29.88 in1011.9 mb 0.02 in0.5 mm 0.00 in0.0 mm 0.02 in0.5 mm
02:00 PM 44.8°F7.1°C 42.8°F6.0°C 93% Calm Calm -- 29.87 in1011.5 mb 0.02 in0.5 mm 0.00 in0.0 mm 0.02 in0.5 mm
01:55 PM 44.8°F7.1°C 42.8°F6.0°C 93% Calm Calm -- 29.87 in1011.5 mb 0.02 in0.5 mm 0.12 in3.0 mm 0.02 in0.5 mm
01:50 PM 44.8°F7.1°C 42.8°F6.0°C 93% Calm Calm -- 29.87 in1011.5 mb 0.01 in0.3 mm 0.00 in0.0 mm 0.01 in0.3 mm
01:45 PM 44.8°F7.1°C 42.6°F5.9°C 92% Calm Calm -- 29.87 in1011.5 mb 0.01 in0.3 mm 0.00 in0.0 mm 0.01 in0.3 mm
01:40 PM 44.8°F7.1°C 42.6°F5.9°C 92% Calm Calm -- 29.87 in1011.5 mb 0.01 in0.3 mm 0.00 in0.0 mm 0.01 in0.3 mm
01:35 PM 44.8°F7.1°C 42.6°F5.9°C 92% Calm Calm -- 29.88 in1011.9 mb 0.01 in0.3 mm 0.00 in0.0 mm 0.01 in0.3 mm
01:30 PM 44.8°F7.1°C 42.6°F5.9°C 92% Calm Calm -- 29.88 in1011.9 mb 0.01 in0.3 mm 0.00 in0.0 mm 0.01 in0.3 mm
01:25 PM 44.9°F7.2°C 42.8°F6.0°C 92% Calm Calm -- 29.88 in1011.9 mb 0.01 in0.3 mm 0.00 in0.0 mm 0.01 in0.3 mm
01:20 PM 44.9°F7.2°C 42.8°F6.0°C 92% Calm Calm -- 29.88 in1011.9 mb 0.01 in0.3 mm 0.00 in0.0 mm 0.01 in0.3 mm
01:15 PM 44.9°F7.2°C 42.8°F6.0°C 92% Calm Calm -- 29.88 in1011.9 mb 0.01 in0.3 mm 0.12 in3.0 mm 0.01 in0.3 mm
01:10 PM 44.9°F7.2°C 42.8°F6.0°C 92% Calm Calm -- 29.88 in1011.9 mb 0.00 in0.0 mm 0.00 in0.0 mm 0.00 in0.0 mm
01:05 PM 44.9°F7.2°C 42.4°F5.8°C 91% Calm Calm -- 29.88 in1011.9 mb 0.00 in0.0 mm 0.00 in0.0 mm 0.00 in0.0 mm
01:00 PM 44.9°F7.2°C 42.4°F5.8°C 91% Calm Calm -- 29.88 in1011.9 mb 0.00 in0.0 mm 0.00 in0.0 mm 0.00 in0.0 mm
12:55 PM 44.9°F7.2°C 42.4°F5.8°C 91% Calm Calm -- 29.88 in1011.9 mb 0.00 in0.0 mm 0.00 in0.0 mm 0.00 in0.0 mm
12:50 PM 44.9°F7.2°C 42.4°F5.8°C 91% Calm Calm -- 29.88 in1011.9 mb 0.00 in0.0 mm 0.00 in0.0 mm 0.00 in0.0 mm
12:45 PM 44.9°F7.2°C 42.4°F5.8°C 91% Calm Calm -- 29.88 in1011.9 mb 0.00 in0.0 mm 0.00 in0.0 mm 0.00 in0.0 mm
12:40 PM 44.9°F7.2°C 42.4°F5.8°C 91% Calm Calm -- 29.88 in1011.9 mb 0.00 in0.0 mm 0.00 in0.0 mm 0.00 in0.0 mm
12:35 PM 44.9°F7.2°C 42.4°F5.8°C 91% Calm Calm -- 29.88 in1011.9 mb 0.00 in0.0 mm 0.00 in0.0 mm 0.00 in0.0 mm
12:30 PM 44.9°F7.2°C 42.4°F5.8°C 91% Calm Calm -- 29.88 in1011.9 mb 0.00 in0.0 mm 0.00 in0.0 mm 0.00 in0.0 mm
12:25 PM 44.8°F7.1°C 42.3°F5.7°C 91% Calm Calm -- 29.88 in1011.9 mb 0.00 in0.0 mm 0.00 in0.0 mm 0.00 in0.0 mm
12:20 PM 44.8°F7.1°C 42.6°F5.9°C 92% Calm Calm -- 29.88 in1011.9 mb 0.00 in0.0 mm 0.00 in0.0 mm 0.00 in0.0 mm
12:15 PM 44.7°F7.1°C 42.6°F5.9°C 92% Calm Calm -- 29.89 in1012.2 mb 0.00 in0.0 mm 0.00 in0.0 mm 0.00 in0.0 mm
12:10 PM 44.6°F7.0°C 42.4°F5.8°C 92% Calm Calm -- 29.88 in1011.9 mb 0.00 in0.0 mm 0.00 in0.0 mm 0.00 in0.0 mm
12:05 PM 44.5°F6.9°C 42.3°F5.7°C 92% Calm Calm -- 29.88 in1011.9 mb 0.00 in0.0 mm 0.00 in0.0 mm 0.00 in0.0 mm
12:00 PM 44.3°F6.8°C 42.1°F5.6°C 92% Calm Calm -- 29.88 in1011.9 mb 0.00 in0.0 mm 0.00 in0.0 mm 0.00 in0.0 mm
11:55 AM 44.1°F6.7°C 41.9°F5.5°C 92% Calm Calm -- 29.89 in1012.2 mb 0.00 in0.0 mm 0.00 in0.0 mm 0.00 in0.0 mm
11:50 AM 43.9°F6.6°C 41.9°F5.5°C 93% Calm Calm -- 29.89 in1012.2 mb 0.00 in0.0 mm 0.00 in0.0 mm 0.00 in0.0 mm
11:45 AM 43.8°F6.6°C 41.9°F5.5°C 93% Calm Calm -- 29.89 in1012.2 mb 0.00 in0.0 mm 0.00 in0.0 mm 0.00 in0.0 mm
11:40 AM 43.6°F6.4°C 41.7°F5.4°C 93% Calm Calm -- 29.89 in1012.2 mb 0.00 in0.0 mm 0.00 in0.0 mm 0.00 in0.0 mm
11:35 AM 43.4°F6.3°C 41.5°F5.3°C 93% Calm Calm -- 29.90 in1012.5 mb 0.00 in0.0 mm 0.00 in0.0 mm 0.00 in0.0 mm
11:30 AM 43.1°F6.2°C 41.4°F5.2°C 93% Calm Calm -- 29.90 in1012.5 mb 0.00 in0.0 mm 0.00 in0.0 mm 0.00 in0.0 mm
11:25 AM 43.0°F6.1°C 41.2°F5.1°C 93% Calm Calm -- 29.90 in1012.5 mb 0.00 in0.0 mm 0.00 in0.0 mm 0.00 in0.0 mm
11:20 AM 42.8°F6.0°C 40.6°F4.8°C 92% Calm Calm -- 29.90 in1012.5 mb 0.00 in0.0 mm 0.00 in0.0 mm 0.00 in0.0 mm
11:15 AM 42.7°F5.9°C 40.8°F4.9°C 93% Calm Calm -- 29.91 in1012.9 mb 0.00 in0.0 mm 0.00 in0.0 mm 0.00 in0.0 mm
11:10 AM 42.6°F5.9°C 40.8°F4.9°C 93% Calm Calm -- 29.91 in1012.9 mb 0.00 in0.0 mm 0.00 in0.0 mm 0.00 in0.0 mm
11:05 AM 42.5°F5.8°C 40.3°F4.6°C 92% Calm Calm -- 29.91 in1012.9 mb 0.00 in0.0 mm 0.00 in0.0 mm 0.00 in0.0 mm
11:00 AM 42.4°F5.8°C 40.3°F4.6°C 92% Calm Calm -- 29.91 in1012.9 mb 0.00 in0.0 mm 0.00 in0.0 mm 0.00 in0.0 mm
10:55 AM 42.2°F5.7°C 40.1°F4.5°C 92% Calm Calm -- 29.92 in1013.2 mb 0.00 in0.0 mm 0.00 in0.0 mm 0.00 in0.0 mm
10:50 AM 42.1°F5.6°C 39.9°F4.4°C 92% Calm Calm -- 29.92 in1013.2 mb 0.00 in0.0 mm 0.00 in0.0 mm 0.00 in0.0 mm
10:45 AM 42.1°F5.6°C 39.9°F4.4°C 92% Calm Calm -- 29.92 in1013.2 mb 0.00 in0.0 mm 0.00 in0.0 mm 0.00 in0.0 mm
10:40 AM 42.0°F5.6°C 39.9°F4.4°C 92% Calm Calm -- 29.92 in1013.2 mb 0.00 in0.0 mm 0.00 in0.0 mm 0.00 in0.0 mm
10:35 AM 42.0°F5.6°C 39.9°F4.4°C 92% Calm Calm -- 29.91 in1012.9 mb 0.00 in0.0 mm 0.00 in0.0 mm 0.00 in0.0 mm
10:30 AM 42.0°F5.6°C 39.9°F4.4°C 92% Calm Calm -- 29.91 in1012.9 mb 0.00 in0.0 mm 0.00 in0.0 mm 0.00 in0.0 mm
10:25 AM 41.9°F5.5°C 39.7°F4.3°C 92% Calm Calm -- 29.91 in1012.9 mb 0.00 in0.0 mm 0.00 in0.0 mm 0.00 in0.0 mm
10:20 AM 41.8°F5.4°C 39.6°F4.2°C 92% Calm Calm -- 29.91 in1012.9 mb 0.00 in0.0 mm 0.00 in0.0 mm 0.00 in0.0 mm
10:15 AM 41.8°F5.4°C 39.6°F4.2°C 92% Calm Calm -- 29.92 in1013.2 mb 0.00 in0.0 mm 0.00 in0.0 mm 0.00 in0.0 mm
10:10 AM 41.8°F5.4°C 39.6°F4.2°C 92% Calm Calm -- 29.92 in1013.2 mb 0.00 in0.0 mm 0.00 in0.0 mm 0.00 in0.0 mm
10:05 AM 41.7°F5.4°C 39.6°F4.2°C 92% Calm Calm -- 29.92 in1013.2 mb 0.00 in0.0 mm 0.00 in0.0 mm 0.00 in0.0 mm
10:00 AM 41.7°F5.4°C 39.6°F4.2°C 92% Calm Calm -- 29.92 in1013.2 mb 0.00 in0.0 mm 0.00 in0.0 mm 0.00 in0.0 mm
09:55 AM 41.7°F5.4°C 39.6°F4.2°C 92% Calm Calm -- 29.92 in1013.2 mb 0.00 in0.0 mm 0.00 in0.0 mm 0.00 in0.0 mm
09:50 AM 41.7°F5.4°C 39.6°F4.2°C 92% Calm Calm -- 29.91 in1012.9 mb 0.00 in0.0 mm 0.00 in0.0 mm 0.00 in0.0 mm
09:45 AM 41.7°F5.4°C 39.6°F4.2°C 92% Calm Calm -- 29.92 in1013.2 mb 0.00 in0.0 mm 0.00 in0.0 mm 0.00 in0.0 mm
09:40 AM 41.7°F5.4°C 39.6°F4.2°C 92% Calm Calm -- 29.91 in1012.9 mb 0.00 in0.0 mm 0.00 in0.0 mm 0.00 in0.0 mm
09:35 AM 41.7°F5.4°C 39.6°F4.2°C 92% Calm Calm -- 29.91 in1012.9 mb 0.00 in0.0 mm 0.00 in0.0 mm 0.00 in0.0 mm
09:30 AM 41.7°F5.4°C 39.6°F4.2°C 92% Calm Calm -- 29.91 in1012.9 mb 0.00 in0.0 mm 0.00 in0.0 mm 0.00 in0.0 mm
09:25 AM 41.6°F5.3°C 39.4°F4.1°C 92% Calm Calm -- 29.91 in1012.9 mb 0.00 in0.0 mm 0.00 in0.0 mm 0.00 in0.0 mm
09:20 AM 41.6°F5.3°C 39.4°F4.1°C 92% Calm Calm -- 29.90 in1012.5 mb 0.00 in0.0 mm 0.00 in0.0 mm 0.00 in0.0 mm
09:15 AM 41.6°F5.3°C 39.4°F4.1°C 92% Calm Calm -- 29.90 in1012.5 mb 0.00 in0.0 mm 0.00 in0.0 mm 0.00 in0.0 mm
09:10 AM 41.5°F5.3°C 39.4°F4.1°C 92% Calm Calm -- 29.90 in1012.5 mb 0.00 in0.0 mm 0.00 in0.0 mm 0.00 in0.0 mm
09:05 AM 41.5°F5.3°C 39.4°F4.1°C 92% Calm Calm -- 29.90 in1012.5 mb 0.00 in0.0 mm 0.00 in0.0 mm 0.00 in0.0 mm
09:00 AM 41.4°F5.2°C 39.0°F3.9°C 91% Calm Calm -- 29.90 in1012.5 mb 0.00 in0.0 mm 0.00 in0.0 mm 0.00 in0.0 mm
08:55 AM 41.4°F5.2°C 39.0°F3.9°C 91% Calm Calm -- 29.90 in1012.5 mb 0.00 in0.0 mm 0.00 in0.0 mm 0.00 in0.0 mm
08:50 AM 41.3°F5.2°C 39.0°F3.9°C 91% Calm Calm -- 29.90 in1012.5 mb 0.00 in0.0 mm 0.00 in0.0 mm 0.00 in0.0 mm
08:45 AM 41.2°F5.1°C 38.8°F3.8°C 91% Calm Calm -- 29.90 in1012.5 mb 0.00 in0.0 mm 0.00 in0.0 mm 0.00 in0.0 mm
08:40 AM 41.2°F5.1°C 38.8°F3.8°C 91% Calm Calm -- 29.90 in1012.5 mb 0.00 in0.0 mm 0.00 in0.0 mm 0.00 in0.0 mm
08:35 AM 41.1°F5.1°C 38.8°F3.8°C 91% Calm Calm -- 29.89 in1012.2 mb 0.00 in0.0 mm 0.00 in0.0 mm 0.00 in0.0 mm
08:30 AM 41.1°F5.1°C 38.8°F3.8°C 91% Calm Calm -- 29.89 in1012.2 mb 0.00 in0.0 mm 0.00 in0.0 mm 0.00 in0.0 mm
08:25 AM 41.1°F5.1°C 38.8°F3.8°C 91% Calm Calm -- 29.89 in1012.2 mb 0.00 in0.0 mm 0.00 in0.0 mm 0.00 in0.0 mm
08:20 AM 41.1°F5.1°C 38.8°F3.8°C 91% Calm Calm -- 29.89 in1012.2 mb 0.00 in0.0 mm 0.00 in0.0 mm 0.00 in0.0 mm
08:15 AM 41.1°F5.1°C 38.8°F3.8°C 91% Calm Calm -- 29.89 in1012.2 mb 0.00 in0.0 mm 0.00 in0.0 mm 0.00 in0.0 mm
08:10 AM 41.1°F5.1°C 38.8°F3.8°C 91% Calm Calm -- 29.89 in1012.2 mb 0.00 in0.0 mm 0.00 in0.0 mm 0.00 in0.0 mm
08:05 AM 41.0°F5.0°C 38.7°F3.7°C 91% Calm Calm -- 29.89 in1012.2 mb 0.00 in0.0 mm 0.00 in0.0 mm 0.00 in0.0 mm
08:00 AM 41.0°F5.0°C 38.7°F3.7°C 91% Calm Calm -- 29.89 in1012.2 mb 0.00 in0.0 mm 0.00 in0.0 mm 0.00 in0.0 mm
07:55 AM 41.0°F5.0°C 38.7°F3.7°C 91% Calm Calm -- 29.88 in1011.9 mb 0.00 in0.0 mm 0.00 in0.0 mm 0.00 in0.0 mm
07:50 AM 41.0°F5.0°C 38.7°F3.7°C 91% Calm Calm -- 29.88 in1011.9 mb 0.00 in0.0 mm 0.00 in0.0 mm 0.00 in0.0 mm
07:45 AM 41.0°F5.0°C 38.3°F3.5°C 90% Calm Calm -- 29.88 in1011.9 mb 0.00 in0.0 mm 0.00 in0.0 mm 0.00 in0.0 mm
07:40 AM 41.0°F5.0°C 38.3°F3.5°C 90% Calm Calm -- 29.88 in1011.9 mb 0.00 in0.0 mm 0.00 in0.0 mm 0.00 in0.0 mm
07:35 AM 41.0°F5.0°C 38.3°F3.5°C 90% Calm Calm -- 29.88 in1011.9 mb 0.00 in0.0 mm 0.00 in0.0 mm 0.00 in0.0 mm
07:30 AM 41.1°F5.1°C 38.5°F3.6°C 90% Calm Calm -- 29.88 in1011.9 mb 0.00 in0.0 mm 0.00 in0.0 mm 0.00 in0.0 mm
07:25 AM 41.1°F5.1°C 38.5°F3.6°C 90% Calm Calm -- 29.87 in1011.5 mb 0.00 in0.0 mm 0.00 in0.0 mm 0.00 in0.0 mm
07:20 AM 41.1°F5.1°C 38.5°F3.6°C 90% Calm Calm -- 29.87 in1011.5 mb 0.00 in0.0 mm 0.00 in0.0 mm 0.00 in0.0 mm
07:15 AM 41.1°F5.1°C 38.5°F3.6°C 90% Calm Calm -- 29.87 in1011.5 mb 0.00 in0.0 mm 0.00 in0.0 mm 0.00 in0.0 mm
07:10 AM 41.2°F5.1°C 38.5°F3.6°C 90% Calm Calm -- 29.87 in1011.5 mb 0.00 in0.0 mm 0.00 in0.0 mm 0.00 in0.0 mm
07:05 AM 41.1°F5.1°C 38.5°F3.6°C 90% Calm Calm -- 29.87 in1011.5 mb 0.00 in0.0 mm 0.00 in0.0 mm 0.00 in0.0 mm
07:00 AM 41.1°F5.1°C 38.5°F3.6°C 90% Calm Calm -- 29.87 in1011.5 mb 0.00 in0.0 mm 0.00 in0.0 mm 0.00 in0.0 mm
06:55 AM 41.2°F5.1°C 38.5°F3.6°C 90% Calm Calm -- 29.87 in1011.5 mb 0.00 in0.0 mm 0.00 in0.0 mm 0.00 in0.0 mm
06:50 AM 41.2°F5.1°C 38.5°F3.6°C 90% Calm Calm -- 29.87 in1011.5 mb 0.00 in0.0 mm 0.00 in0.0 mm 0.00 in0.0 mm
06:45 AM 41.2°F5.1°C 38.5°F3.6°C 90% Calm Calm -- 29.87 in1011.5 mb 0.00 in0.0 mm 0.00 in0.0 mm 0.00 in0.0 mm
06:40 AM 41.1°F5.1°C 38.5°F3.6°C 90% Calm Calm -- 29.87 in1011.5 mb 0.00 in0.0 mm 0.00 in0.0 mm 0.00 in0.0 mm
06:35 AM 41.1°F5.1°C 38.5°F3.6°C 90% Calm Calm -- 29.87 in1011.5 mb 0.00 in0.0 mm 0.00 in0.0 mm 0.00 in0.0 mm
06:30 AM 41.1°F5.1°C 38.5°F3.6°C 90% Calm Calm -- 29.87 in1011.5 mb 0.00 in0.0 mm 0.00 in0.0 mm 0.00 in0.0 mm
06:25 AM 41.0°F5.0°C 38.3°F3.5°C 90% Calm Calm -- 29.87 in1011.5 mb 0.00 in0.0 mm 0.00 in0.0 mm 0.00 in0.0 mm
06:20 AM 41.1°F5.1°C 38.5°F3.6°C 90% Calm Calm -- 29.86 in1011.2 mb 0.00 in0.0 mm 0.00 in0.0 mm 0.00 in0.0 mm
06:15 AM 41.1°F5.1°C 38.5°F3.6°C 90% Calm Calm -- 29.86 in1011.2 mb 0.00 in0.0 mm 0.00 in0.0 mm 0.00 in0.0 mm
06:10 AM 41.0°F5.0°C 38.3°F3.5°C 90% Calm Calm -- 29.86 in1011.2 mb 0.00 in0.0 mm 0.00 in0.0 mm 0.00 in0.0 mm
06:05 AM 41.0°F5.0°C 38.3°F3.5°C 90% Calm Calm -- 29.86 in1011.2 mb 0.00 in0.0 mm 0.00 in0.0 mm 0.00 in0.0 mm
06:00 AM 41.0°F5.0°C 38.3°F3.5°C 90% Calm Calm -- 29.86 in1011.2 mb 0.00 in0.0 mm 0.00 in0.0 mm 0.00 in0.0 mm
05:55 AM 41.0°F5.0°C 38.3°F3.5°C 90% Calm Calm -- 29.85 in1010.8 mb 0.00 in0.0 mm 0.00 in0.0 mm 0.00 in0.0 mm
05:50 AM 41.0°F5.0°C 37.9°F3.3°C 89% Calm Calm -- 29.85 in1010.8 mb 0.00 in0.0 mm 0.00 in0.0 mm 0.00 in0.0 mm
05:45 AM 41.0°F5.0°C 37.9°F3.3°C 89% Calm Calm -- 29.85 in1010.8 mb 0.00 in0.0 mm 0.00 in0.0 mm 0.00 in0.0 mm
05:40 AM 41.0°F5.0°C 37.9°F3.3°C 89% Calm Calm -- 29.85 in1010.8 mb 0.00 in0.0 mm 0.00 in0.0 mm 0.00 in0.0 mm
05:35 AM 41.0°F5.0°C 37.9°F3.3°C 89% Calm Calm -- 29.85 in1010.8 mb 0.00 in0.0 mm 0.00 in0.0 mm 0.00 in0.0 mm
05:30 AM 41.0°F5.0°C 37.9°F3.3°C 89% Calm Calm -- 29.85 in1010.8 mb 0.00 in0.0 mm 0.00 in0.0 mm 0.00 in0.0 mm
05:25 AM 41.0°F5.0°C 37.9°F3.3°C 89% Calm Calm -- 29.85 in1010.8 mb 0.00 in0.0 mm 0.00 in0.0 mm 0.00 in0.0 mm
05:20 AM 41.0°F5.0°C 37.9°F3.3°C 89% Calm Calm -- 29.85 in1010.8 mb 0.00 in0.0 mm 0.00 in0.0 mm 0.00 in0.0 mm
05:15 AM 40.9°F4.9°C 37.8°F3.2°C 89% Calm Calm -- 29.86 in1011.2 mb 0.00 in0.0 mm 0.00 in0.0 mm 0.00 in0.0 mm
05:10 AM 40.9°F4.9°C 37.8°F3.2°C 89% Calm Calm -- 29.86 in1011.2 mb 0.00 in0.0 mm 0.00 in0.0 mm 0.00 in0.0 mm
05:05 AM 40.9°F4.9°C 37.8°F3.2°C 89% Calm Calm -- 29.86 in1011.2 mb 0.00 in0.0 mm 0.00 in0.0 mm 0.00 in0.0 mm
05:00 AM 40.9°F4.9°C 37.8°F3.2°C 89% Calm Calm -- 29.86 in1011.2 mb 0.00 in0.0 mm 0.00 in0.0 mm 0.00 in0.0 mm
04:55 AM 40.9°F4.9°C 37.8°F3.2°C 89% Calm Calm -- 29.85 in1010.8 mb 0.00 in0.0 mm 0.00 in0.0 mm 0.00 in0.0 mm
04:50 AM 40.9°F4.9°C 37.8°F3.2°C 89% Calm Calm -- 29.85 in1010.8 mb 0.00 in0.0 mm 0.00 in0.0 mm 0.00 in0.0 mm
04:45 AM 40.9°F4.9°C 37.8°F3.2°C 89% Calm Calm -- 29.85 in1010.8 mb 0.00 in0.0 mm 0.00 in0.0 mm 0.00 in0.0 mm
04:40 AM 40.8°F4.9°C 37.8°F3.2°C 89% Calm Calm -- 29.85 in1010.8 mb 0.00 in0.0 mm 0.00 in0.0 mm 0.00 in0.0 mm
04:35 AM 40.8°F4.9°C 37.8°F3.2°C 89% Calm Calm -- 29.86 in1011.2 mb 0.00 in0.0 mm 0.00 in0.0 mm 0.00 in0.0 mm
04:30 AM 40.7°F4.8°C 37.4°F3.0°C 88% Calm Calm -- 29.86 in1011.2 mb 0.00 in0.0 mm 0.00 in0.0 mm 0.00 in0.0 mm
04:25 AM 40.6°F4.8°C 37.4°F3.0°C 88% Calm Calm -- 29.86 in1011.2 mb 0.00 in0.0 mm 0.00 in0.0 mm 0.00 in0.0 mm
04:20 AM 40.5°F4.7°C 37.2°F2.9°C 88% Calm Calm -- 29.85 in1010.8 mb 0.00 in0.0 mm 0.00 in0.0 mm 0.00 in0.0 mm
04:15 AM 40.5°F4.7°C 37.2°F2.9°C 88% Calm Calm -- 29.85 in1010.8 mb 0.00 in0.0 mm 0.00 in0.0 mm 0.00 in0.0 mm
04:10 AM 40.4°F4.7°C 37.2°F2.9°C 88% Calm Calm -- 29.85 in1010.8 mb 0.00 in0.0 mm 0.00 in0.0 mm 0.00 in0.0 mm
04:05 AM 40.4°F4.7°C 37.2°F2.9°C 88% Calm Calm -- 29.86 in1011.2 mb 0.00 in0.0 mm 0.00 in0.0 mm 0.00 in0.0 mm
04:00 AM 40.4°F4.7°C 37.2°F2.9°C 88% Calm Calm -- 29.86 in1011.2 mb 0.00 in0.0 mm 0.00 in0.0 mm 0.00 in0.0 mm
03:55 AM 40.3°F4.6°C 37.0°F2.8°C 88% Calm Calm -- 29.86 in1011.2 mb 0.00 in0.0 mm 0.00 in0.0 mm 0.00 in0.0 mm
03:50 AM 40.3°F4.6°C 37.0°F2.8°C 88% Calm Calm -- 29.86 in1011.2 mb 0.00 in0.0 mm 0.00 in0.0 mm 0.00 in0.0 mm
03:45 AM 40.3°F4.6°C 36.7°F2.6°C 87% Calm Calm -- 29.86 in1011.2 mb 0.00 in0.0 mm 0.00 in0.0 mm 0.00 in0.0 mm
03:40 AM 40.3°F4.6°C 36.7°F2.6°C 87% Calm Calm -- 29.86 in1011.2 mb 0.00 in0.0 mm 0.00 in0.0 mm 0.00 in0.0 mm
03:35 AM 40.3°F4.6°C 36.7°F2.6°C 87% Calm Calm -- 29.87 in1011.5 mb 0.00 in0.0 mm 0.00 in0.0 mm 0.00 in0.0 mm
03:30 AM 40.2°F4.6°C 36.7°F2.6°C 87% Calm Calm -- 29.87 in1011.5 mb 0.00 in0.0 mm 0.00 in0.0 mm 0.00 in0.0 mm
03:25 AM 40.2°F4.6°C 36.7°F2.6°C 87% Calm Calm -- 29.87 in1011.5 mb 0.00 in0.0 mm 0.00 in0.0 mm 0.00 in0.0 mm
03:20 AM 40.2°F4.6°C 36.7°F2.6°C 87% Calm Calm -- 29.87 in1011.5 mb 0.00 in0.0 mm 0.00 in0.0 mm 0.00 in0.0 mm
03:15 AM 40.2°F4.6°C 36.7°F2.6°C 87% Calm Calm -- 29.87 in1011.5 mb 0.00 in0.0 mm 0.00 in0.0 mm 0.00 in0.0 mm
03:10 AM 40.1°F4.5°C 36.5°F2.5°C 87% Calm Calm -- 29.87 in1011.5 mb 0.00 in0.0 mm 0.00 in0.0 mm 0.00 in0.0 mm
03:05 AM 40.1°F4.5°C 36.5°F2.5°C 87% Calm Calm -- 29.87 in1011.5 mb 0.00 in0.0 mm 0.00 in0.0 mm 0.00 in0.0 mm
03:00 AM 40.1°F4.5°C 36.5°F2.5°C 87% Calm Calm -- 29.87 in1011.5 mb 0.00 in0.0 mm 0.00 in0.0 mm 0.00 in0.0 mm
02:55 AM 40.0°F4.4°C 36.3°F2.4°C 87% Calm Calm -- 29.87 in1011.5 mb 0.00 in0.0 mm 0.00 in0.0 mm 0.00 in0.0 mm
02:50 AM 39.9°F4.4°C 36.1°F2.3°C 86% Calm Calm -- 29.87 in1011.5 mb 0.00 in0.0 mm 0.00 in0.0 mm 0.00 in0.0 mm
02:45 AM 39.8°F4.3°C 36.0°F2.2°C 86% Calm Calm -- 29.87 in1011.5 mb 0.00 in0.0 mm 0.00 in0.0 mm 0.00 in0.0 mm
02:40 AM 39.7°F4.3°C 36.0°F2.2°C 86% Calm Calm -- 29.87 in1011.5 mb 0.00 in0.0 mm 0.00 in0.0 mm 0.00 in0.0 mm
02:35 AM 39.7°F4.3°C 35.6°F2.0°C 85% Calm Calm -- 29.87 in1011.5 mb 0.00 in0.0 mm 0.00 in0.0 mm 0.00 in0.0 mm
02:30 AM 39.6°F4.2°C 35.4°F1.9°C 85% Calm Calm -- 29.88 in1011.9 mb 0.00 in0.0 mm 0.00 in0.0 mm 0.00 in0.0 mm
02:25 AM 39.5°F4.2°C 35.4°F1.9°C 85% Calm Calm -- 29.88 in1011.9 mb 0.00 in0.0 mm 0.00 in0.0 mm 0.00 in0.0 mm
02:20 AM 39.5°F4.2°C 35.4°F1.9°C 85% Calm Calm -- 29.88 in1011.9 mb 0.00 in0.0 mm 0.00 in0.0 mm 0.00 in0.0 mm
02:15 AM 39.4°F4.1°C 34.9°F1.6°C 84% Calm Calm -- 29.88 in1011.9 mb 0.00 in0.0 mm 0.00 in0.0 mm 0.00 in0.0 mm
02:10 AM 39.4°F4.1°C 34.9°F1.6°C 84% Calm Calm -- 29.88 in1011.9 mb 0.00 in0.0 mm 0.00 in0.0 mm 0.00 in0.0 mm
02:05 AM 39.3°F4.1°C 34.9°F1.6°C 84% Calm Calm -- 29.88 in1011.9 mb 0.00 in0.0 mm 0.00 in0.0 mm 0.00 in0.0 mm
02:00 AM 39.3°F4.1°C 34.7°F1.5°C 83% Calm Calm -- 29.88 in1011.9 mb 0.00 in0.0 mm 0.00 in0.0 mm 0.00 in0.0 mm
01:55 AM 39.2°F4.0°C 34.5°F1.4°C 83% Calm Calm -- 29.88 in1011.9 mb 0.00 in0.0 mm 0.00 in0.0 mm 0.00 in0.0 mm
01:50 AM 39.2°F4.0°C 34.5°F1.4°C 83% Calm Calm -- 29.88 in1011.9 mb 0.00 in0.0 mm 0.00 in0.0 mm 0.00 in0.0 mm
01:45 AM 39.2°F4.0°C 34.5°F1.4°C 83% Calm Calm -- 29.87 in1011.5 mb 0.00 in0.0 mm 0.00 in0.0 mm 0.00 in0.0 mm
01:40 AM 39.1°F3.9°C 34.3°F1.3°C 83% Calm Calm -- 29.87 in1011.5 mb 0.00 in0.0 mm 0.00 in0.0 mm 0.00 in0.0 mm
01:35 AM 39.1°F3.9°C 34.3°F1.3°C 83% Calm Calm -- 29.87 in1011.5 mb 0.00 in0.0 mm 0.00 in0.0 mm 0.00 in0.0 mm
01:30 AM 39.0°F3.9°C 34.0°F1.1°C 82% Calm Calm -- 29.87 in1011.5 mb 0.00 in0.0 mm 0.00 in0.0 mm 0.00 in0.0 mm
01:25 AM 39.0°F3.9°C 34.0°F1.1°C 82% Calm Calm -- 29.87 in1011.5 mb 0.00 in0.0 mm 0.00 in0.0 mm 0.00 in0.0 mm
01:20 AM 38.9°F3.8°C 33.4°F0.8°C 81% Calm Calm -- 29.86 in1011.2 mb 0.00 in0.0 mm 0.00 in0.0 mm 0.00 in0.0 mm
01:15 AM 38.9°F3.8°C 33.4°F0.8°C 81% Calm Calm -- 29.87 in1011.5 mb 0.00 in0.0 mm 0.00 in0.0 mm 0.00 in0.0 mm
01:10 AM 38.8°F3.8°C 33.3°F0.7°C 80% Calm Calm -- 29.87 in1011.5 mb 0.00 in0.0 mm 0.00 in0.0 mm 0.00 in0.0 mm
01:05 AM 38.8°F3.8°C 33.3°F0.7°C 80% Calm Calm -- 29.87 in1011.5 mb 0.00 in0.0 mm 0.00 in0.0 mm 0.00 in0.0 mm
01:00 AM 38.8°F3.8°C 32.9°F0.5°C 79% Calm Calm -- 29.87 in1011.5 mb 0.00 in0.0 mm 0.00 in0.0 mm 0.00 in0.0 mm
12:55 AM 38.7°F3.7°C 32.4°F0.2°C 78% Calm Calm -- 29.87 in1011.5 mb 0.00 in0.0 mm 0.00 in0.0 mm 0.00 in0.0 mm
12:50 AM 38.7°F3.7°C 32.0°F0.0°C 77% Calm Calm -- 29.87 in1011.5 mb 0.00 in0.0 mm 0.00 in0.0 mm 0.00 in0.0 mm
12:45 AM 38.6°F3.7°C 31.5°F-0.3°C 75% Calm Calm -- 29.87 in1011.5 mb 0.00 in0.0 mm 0.00 in0.0 mm 0.00 in0.0 mm
12:40 AM 38.7°F3.7°C 31.5°F-0.3°C 75% Calm Calm -- 29.87 in1011.5 mb 0.00 in0.0 mm 0.00 in0.0 mm 0.00 in0.0 mm
12:35 AM 38.6°F3.7°C 31.1°F-0.5°C 74% Calm Calm -- 29.87 in1011.5 mb 0.00 in0.0 mm 0.00 in0.0 mm 0.00 in0.0 mm
12:30 AM 38.6°F3.7°C 30.7°F-0.7°C 73% Calm Calm -- 29.87 in1011.5 mb 0.00 in0.0 mm 0.00 in0.0 mm 0.00 in0.0 mm
12:25 AM 38.6°F3.7°C 30.7°F-0.7°C 73% Calm Calm -- 29.88 in1011.9 mb 0.00 in0.0 mm 0.00 in0.0 mm 0.00 in0.0 mm
12:20 AM 38.6°F3.7°C 30.7°F-0.7°C 73% Calm Calm -- 29.88 in1011.9 mb 0.00 in0.0 mm 0.00 in0.0 mm 0.00 in0.0 mm
12:15 AM 38.5°F3.6°C 30.2°F-1.0°C 72% Calm Calm -- 29.87 in1011.5 mb 0.00 in0.0 mm 0.00 in0.0 mm 0.00 in0.0 mm
12:10 AM 38.4°F3.6°C 29.8°F-1.2°C 71% Calm Calm -- 29.88 in1011.9 mb 0.00 in0.0 mm 0.00 in0.0 mm 0.00 in0.0 mm
12:05 AM 38.4°F3.6°C 29.5°F-1.4°C 70% Calm Calm -- 29.88 in1011.9 mb 0.00 in0.0 mm 0.00 in0.0 mm 0.00 in0.0 mm
12:00 AM 38.4°F3.6°C 28.9°F-1.7°C 68% Calm Calm -- 29.88 in1011.9 mb 0.00 in0.0 mm 0.00 in0.0 mm 0.00 in0.0 mm